createdAt,value
2018-04-07T00:00:52.038Z,41.96
2018-04-07T00:03:18.919Z,41.74
2018-04-07T00:05:44.794Z,41.74
2018-04-07T00:08:10.730Z,41.34
2018-04-07T00:10:36.613Z,41.54
2018-04-07T00:13:04.938Z,41.44
2018-04-07T00:15:30.818Z,41.56
2018-04-07T00:17:57.606Z,41.32
2018-04-07T00:20:27.566Z,41.11
2018-04-07T00:22:54.079Z,41.18
2018-04-07T00:25:21.430Z,41.13
2018-04-07T00:27:47.997Z,41.20
2018-04-07T00:30:13.909Z,41.35
2018-04-07T00:32:39.810Z,41.50
2018-04-07T00:35:07.252Z,41.19
2018-04-07T00:37:33.161Z,41.36
2018-04-07T00:39:59.118Z,41.25
2018-04-07T00:42:27.197Z,41.51
2018-04-07T00:44:53.078Z,41.57
2018-04-07T00:47:18.993Z,41.45
2018-04-07T00:52:35.087Z,41.60
2018-04-07T00:55:04.954Z,41.67
2018-04-07T01:00:07.901Z,41.67
2018-04-07T01:02:33.755Z,41.44
2018-04-07T01:04:59.576Z,41.65
2018-04-07T01:07:25.384Z,41.50
2018-04-07T01:12:36.298Z,41.34
2018-04-07T01:15:03.341Z,41.92
2018-04-07T01:17:29.242Z,40.98
2018-04-07T01:20:07.373Z,41.15
2018-04-07T01:22:33.293Z,41.37
2018-04-07T01:24:59.154Z,41.15
2018-04-07T01:27:24.969Z,40.73
2018-04-07T01:29:50.770Z,41.16
2018-04-07T01:32:17.606Z,41.14
2018-04-07T01:34:43.453Z,40.96
2018-04-07T01:37:09.267Z,40.87
2018-04-07T01:39:35.950Z,40.79
2018-04-07T01:42:01.901Z,40.69
2018-04-07T01:44:27.713Z,40.76
2018-04-07T01:46:53.525Z,40.72
2018-04-07T01:49:19.330Z,40.75
2018-04-07T01:51:45.174Z,40.57
2018-04-07T01:54:11.160Z,40.97
2018-04-07T01:56:37.826Z,40.50
2018-04-07T01:59:03.748Z,41.37
2018-04-07T02:01:29.568Z,40.76
2018-04-07T02:03:55.378Z,41.17
2018-04-07T02:06:22.210Z,40.94
2018-04-07T02:08:48.029Z,40.82
2018-04-07T02:11:14.043Z,40.48
2018-04-07T02:13:39.890Z,41.07
2018-04-07T02:16:05.794Z,40.67
2018-04-07T02:18:31.602Z,40.86
2018-04-07T02:20:57.411Z,40.62
2018-04-07T02:23:23.375Z,40.86
2018-04-07T02:25:49.180Z,40.58
2018-04-07T02:28:16.061Z,40.60
2018-04-07T02:30:41.866Z,40.57
2018-04-07T02:33:07.757Z,40.76
2018-04-07T02:35:33.570Z,41.17
2018-04-07T02:38:00.199Z,40.73
2018-04-07T02:40:26.035Z,40.74
2018-04-07T02:42:51.846Z,40.81
2018-04-07T02:45:17.645Z,40.82
2018-04-07T02:47:43.457Z,40.60
2018-04-07T02:50:09.270Z,40.21
2018-04-07T02:52:35.136Z,40.95
2018-04-07T02:55:00.942Z,40.46
2018-04-07T02:57:26.749Z,40.75
2018-04-07T02:59:52.615Z,40.84
2018-04-07T03:02:18.428Z,41.30
2018-04-07T03:04:44.240Z,41.26
2018-04-07T03:07:10.049Z,41.26
2018-04-07T03:09:35.862Z,41.52
2018-04-07T03:12:01.674Z,41.11
2018-04-07T03:14:27.477Z,41.39
2018-04-07T03:16:53.284Z,41.05
2018-04-07T03:19:19.122Z,41.31
2018-04-07T03:21:44.935Z,41.68
2018-04-07T03:24:11.694Z,41.08
2018-04-07T03:26:37.541Z,41.68
2018-04-07T03:29:03.354Z,41.40
2018-04-07T03:31:29.195Z,41.57
2018-04-07T03:33:55.953Z,40.92
2018-04-07T03:36:22.683Z,41.04
2018-04-07T03:38:48.518Z,41.09
2018-04-07T03:41:14.325Z,40.78
2018-04-07T03:43:41.093Z,40.99
2018-04-07T03:46:07.199Z,41.52
2018-04-07T03:48:33.022Z,40.42
2018-04-07T03:50:59.910Z,40.81
2018-04-07T03:53:25.719Z,40.34
2018-04-07T03:55:52.462Z,40.86
2018-04-07T03:58:19.278Z,40.15
2018-04-07T04:00:45.917Z,39.83
2018-04-07T04:03:12.700Z,39.75
2018-04-07T04:05:38.666Z,39.77
2018-04-07T04:08:04.475Z,39.98
2018-04-07T04:10:31.216Z,39.91
2018-04-07T04:12:57.027Z,39.76
2018-04-07T04:15:22.865Z,40.06
2018-04-07T04:17:48.733Z,39.86
2018-04-07T04:20:14.569Z,39.93
2018-04-07T04:22:41.204Z,40.14
2018-04-07T04:25:07.146Z,39.67
2018-04-07T04:27:32.953Z,39.70
2018-04-07T04:29:58.874Z,40.40
2018-04-07T04:32:24.684Z,39.82
2018-04-07T04:34:51.486Z,39.64
2018-04-07T04:37:18.106Z,40.10
2018-04-07T04:39:43.911Z,39.82
2018-04-07T04:42:09.937Z,40.00
2018-04-07T04:44:36.623Z,40.62
2018-04-07T04:47:02.434Z,39.99
2018-04-07T04:49:28.242Z,40.07
2018-04-07T04:51:54.090Z,40.01
2018-04-07T04:54:20.766Z,39.97
2018-04-07T04:56:46.577Z,39.96
2018-04-07T04:59:12.407Z,39.98
2018-04-07T05:01:39.032Z,40.08
2018-04-07T05:04:04.861Z,40.30
2018-04-07T05:06:31.646Z,40.30
2018-04-07T05:08:58.365Z,40.00
2018-04-07T05:11:25.133Z,39.82
2018-04-07T05:13:51.130Z,39.90
2018-04-07T05:16:17.897Z,39.58
2018-04-07T05:18:43.798Z,40.29
2018-04-07T05:21:10.425Z,39.96
2018-04-07T05:23:36.348Z,39.83
2018-04-07T05:26:02.310Z,39.83
2018-04-07T05:28:28.137Z,39.58
2018-04-07T05:30:53.982Z,39.56
2018-04-07T05:33:19.816Z,39.66
2018-04-07T05:35:45.658Z,39.75
2018-04-07T05:38:11.485Z,39.42
2018-04-07T05:40:37.512Z,39.56
2018-04-07T05:43:03.265Z,39.44
2018-04-07T05:45:29.070Z,39.18
2018-04-07T05:47:55.041Z,39.38
2018-04-07T05:50:20.870Z,39.45
2018-04-07T05:52:47.693Z,39.17
2018-04-07T05:55:14.421Z,39.23
2018-04-07T05:57:40.252Z,39.10
2018-04-07T06:00:06.062Z,39.16
2018-04-07T06:02:31.879Z,39.06
2018-04-07T06:04:57.755Z,39.10
2018-04-07T06:07:23.786Z,38.69
2018-04-07T06:09:49.602Z,38.86
2018-04-07T06:12:15.418Z,39.38
2018-04-07T06:14:41.314Z,38.60
2018-04-07T06:17:07.157Z,38.44
2018-04-07T06:19:32.978Z,38.59
2018-04-07T06:21:58.789Z,38.47
2018-04-07T06:24:24.595Z,38.06
2018-04-07T06:26:50.514Z,38.29
2018-04-07T06:29:16.321Z,38.33
2018-04-07T06:31:42.143Z,37.87
2018-04-07T06:34:07.955Z,37.87
2018-04-07T06:36:33.898Z,38.08
2018-04-07T06:38:59.731Z,37.45
2018-04-07T06:41:25.938Z,37.93
2018-04-07T06:43:51.984Z,37.22
2018-04-07T06:46:17.818Z,37.46
2018-04-07T06:48:43.646Z,37.09
2018-04-07T06:51:09.482Z,37.58
2018-04-07T06:53:35.319Z,37.40
2018-04-07T06:56:01.280Z,37.13
2018-04-07T06:58:27.930Z,37.11
2018-04-07T07:00:53.789Z,37.53
2018-04-07T07:03:19.608Z,36.79
2018-04-07T07:05:45.466Z,36.68
2018-04-07T07:08:11.295Z,36.60
2018-04-07T07:10:38.104Z,36.76
2018-04-07T07:13:04.962Z,36.63
2018-04-07T07:15:30.775Z,36.75
2018-04-07T07:17:56.631Z,36.70
2018-04-07T07:20:22.451Z,36.72
2018-04-07T07:22:48.400Z,37.23
2018-04-07T07:25:14.270Z,36.58
2018-04-07T07:27:40.211Z,36.57
2018-04-07T07:30:06.054Z,36.50
2018-04-07T07:32:31.867Z,36.52
2018-04-07T07:34:57.743Z,36.95
2018-04-07T07:37:23.557Z,36.42
2018-04-07T07:39:49.358Z,37.11
2018-04-07T07:42:15.175Z,37.34
2018-04-07T07:44:41.083Z,36.33
2018-04-07T07:47:06.897Z,38.21
2018-04-07T07:49:32.754Z,38.83
2018-04-07T07:51:58.590Z,38.11
2018-04-07T07:54:24.401Z,38.89
2018-04-07T07:56:50.222Z,39.43
2018-04-07T07:59:16.046Z,39.98
2018-04-07T08:01:41.863Z,39.64
2018-04-07T08:04:07.731Z,39.87
2018-04-07T08:06:34.272Z,41.27
2018-04-07T08:09:00.086Z,40.83
2018-04-07T08:11:25.896Z,41.78
2018-04-07T08:13:51.718Z,41.29
2018-04-07T08:16:17.564Z,41.21
2018-04-07T08:18:44.263Z,40.64
2018-04-07T08:21:10.136Z,41.19
2018-04-07T08:23:35.987Z,41.74
2018-04-07T08:26:02.628Z,41.76
2018-04-07T08:28:28.474Z,41.33
2018-04-07T08:30:54.301Z,40.58
2018-04-07T08:33:20.205Z,40.51
2018-04-07T08:35:46.016Z,39.13
2018-04-07T08:38:12.719Z,38.35
2018-04-07T08:40:38.546Z,38.58
2018-04-07T08:43:04.415Z,38.31
2018-04-07T08:45:31.165Z,38.43
2018-04-07T08:47:57.924Z,37.94
2018-04-07T08:50:23.747Z,38.91
2018-04-07T08:52:49.561Z,38.83
2018-04-07T08:55:15.416Z,38.80
2018-04-07T08:57:41.229Z,39.31
2018-04-07T09:00:07.990Z,39.75
2018-04-07T09:02:34.793Z,39.82
2018-04-07T09:05:02.426Z,40.12
2018-04-07T09:07:28.234Z,39.84
2018-04-07T09:09:56.755Z,40.39
2018-04-07T09:12:23.680Z,40.28
2018-04-07T09:14:50.302Z,40.57
2018-04-07T09:17:17.106Z,40.40
2018-04-07T09:19:42.951Z,39.25
2018-04-07T09:22:08.768Z,37.78
2018-04-07T09:24:34.582Z,39.94
2018-04-07T09:27:01.297Z,40.22
2018-04-07T09:29:27.118Z,40.42
2018-04-07T09:31:53.095Z,40.54
2018-04-07T09:34:18.903Z,40.53
2018-04-07T09:36:44.762Z,40.30
2018-04-07T09:39:10.574Z,40.34
2018-04-07T09:41:36.512Z,40.79
2018-04-07T09:44:02.373Z,40.15
2018-04-07T09:46:28.334Z,40.69
2018-04-07T09:48:54.143Z,40.22
2018-04-07T09:51:19.969Z,39.20
2018-04-07T09:53:45.804Z,39.55
2018-04-07T09:56:11.622Z,40.59
2018-04-07T09:58:37.471Z,40.56
2018-04-07T10:01:03.304Z,40.50
2018-04-07T10:03:29.262Z,40.51
2018-04-07T10:05:55.078Z,40.58
2018-04-07T10:08:20.895Z,40.63
2018-04-07T10:10:46.714Z,40.28
2018-04-07T10:13:12.516Z,40.47
2018-04-07T10:15:38.329Z,40.69
2018-04-07T10:18:04.139Z,40.58
2018-04-07T10:20:29.959Z,40.93
2018-04-07T10:22:55.769Z,40.77
2018-04-07T10:25:21.590Z,40.82
2018-04-07T10:27:47.476Z,40.73
2018-04-07T10:30:13.286Z,40.82
2018-04-07T10:32:39.222Z,40.56
2018-04-07T10:35:05.030Z,40.69
2018-04-07T10:37:30.959Z,40.47
2018-04-07T10:39:56.799Z,40.62
2018-04-07T10:42:23.502Z,40.71
2018-04-07T10:44:49.339Z,40.78
2018-04-07T10:47:15.279Z,40.63
2018-04-07T10:49:41.136Z,40.67
2018-04-07T10:52:06.951Z,40.58
2018-04-07T10:54:32.835Z,40.61
2018-04-07T10:56:59.446Z,40.75
2018-04-07T10:59:26.105Z,40.77
2018-04-07T11:01:52.250Z,40.90
2018-04-07T11:04:18.943Z,40.76
2018-04-07T11:06:44.793Z,40.60
2018-04-07T11:09:10.599Z,40.38
2018-04-07T11:11:36.447Z,40.12
2018-04-07T11:14:02.282Z,40.03
2018-04-07T11:16:28.298Z,40.29
2018-04-07T11:18:54.106Z,40.14
2018-04-07T11:21:19.914Z,40.19
2018-04-07T11:23:46.709Z,40.26
2018-04-07T11:26:13.706Z,40.19
2018-04-07T11:28:40.546Z,40.36
2018-04-07T11:31:06.346Z,40.23
2018-04-07T11:33:32.183Z,40.25
2018-04-07T11:35:58.193Z,40.24
2018-04-07T11:38:24.853Z,39.79
2018-04-07T11:40:50.702Z,40.15
2018-04-07T11:43:16.533Z,40.28
2018-04-07T11:45:42.510Z,40.44
2018-04-07T11:48:08.342Z,40.46
2018-04-07T11:50:34.154Z,40.39
2018-04-07T11:53:00.071Z,40.46
2018-04-07T11:55:25.932Z,40.54
2018-04-07T11:57:51.903Z,40.65
2018-04-07T12:00:17.867Z,40.57
2018-04-07T12:02:43.898Z,40.57
2018-04-07T12:05:09.870Z,40.59
2018-04-07T12:07:35.826Z,40.50
2018-04-07T12:10:01.646Z,40.37
2018-04-07T12:12:27.486Z,40.46
2018-04-07T12:14:54.694Z,40.49
2018-04-07T12:17:20.613Z,40.46
2018-04-07T12:19:47.407Z,40.40
2018-04-07T12:22:13.265Z,40.64
2018-04-07T12:24:40.027Z,40.67
2018-04-07T12:27:05.850Z,40.71
2018-04-07T12:29:31.667Z,40.82
2018-04-07T12:31:57.471Z,40.86
2018-04-07T12:34:23.277Z,40.89
2018-04-07T12:36:49.131Z,41.07
2018-04-07T12:39:14.974Z,41.06
2018-04-07T12:41:40.826Z,41.15
2018-04-07T12:44:06.638Z,41.30
2018-04-07T12:46:32.474Z,41.26
2018-04-07T12:48:58.285Z,41.23
2018-04-07T12:51:24.945Z,41.20
2018-04-07T12:53:51.739Z,41.45
2018-04-07T12:56:17.567Z,41.37
2018-04-07T12:58:43.394Z,41.37
2018-04-07T13:01:09.207Z,41.62
2018-04-07T13:03:35.863Z,41.49
2018-04-07T13:06:01.671Z,41.63
2018-04-07T13:08:27.474Z,41.67
2018-04-07T13:10:53.286Z,41.56
2018-04-07T13:13:19.100Z,41.48
2018-04-07T13:15:44.913Z,41.60
2018-04-07T13:18:10.882Z,41.60
2018-04-07T13:20:36.704Z,41.49
2018-04-07T13:23:02.530Z,41.73
2018-04-07T13:25:28.351Z,41.52
2018-04-07T13:27:54.150Z,41.86
2018-04-07T13:30:19.954Z,41.70
2018-04-07T13:32:45.766Z,41.67
2018-04-07T13:35:11.576Z,41.70
2018-04-07T13:37:37.417Z,41.60
2018-04-07T13:40:03.789Z,41.49
2018-04-07T13:42:29.649Z,41.44
2018-04-07T13:44:55.458Z,41.42
2018-04-07T13:47:21.270Z,41.36
2018-04-07T13:49:47.079Z,41.35
2018-04-07T13:52:12.884Z,41.52
2018-04-07T13:54:38.699Z,41.52
2018-04-07T13:57:04.509Z,41.34
2018-04-07T13:59:30.481Z,41.45
2018-04-07T14:01:56.326Z,41.57
2018-04-07T14:04:22.158Z,41.42
2018-04-07T14:06:48.854Z,41.53
2018-04-07T14:09:16.492Z,41.52
2018-04-07T14:11:42.442Z,41.58
2018-04-07T14:14:09.188Z,41.54
2018-04-07T14:16:35.112Z,41.44
2018-04-07T14:19:01.059Z,41.38
2018-04-07T14:21:26.938Z,41.33
2018-04-07T14:23:52.798Z,41.30
2018-04-07T14:26:18.633Z,41.39
2018-04-07T14:28:45.426Z,41.42
2018-04-07T14:31:11.231Z,41.55
2018-04-07T14:33:38.090Z,41.69
2018-04-07T14:36:03.899Z,41.65
2018-04-07T14:38:29.707Z,41.61
2018-04-07T14:40:55.521Z,41.70
2018-04-07T14:43:21.367Z,41.71
2018-04-07T14:45:47.237Z,41.72
2018-04-07T14:48:14.022Z,41.71
2018-04-07T14:50:40.807Z,41.78
2018-04-07T14:53:06.628Z,41.84
2018-04-07T14:55:32.444Z,41.81
2018-04-07T14:57:58.273Z,41.92
2018-04-07T15:00:24.087Z,41.88
2018-04-07T15:02:49.936Z,41.86
2018-04-07T15:05:15.940Z,41.48
2018-04-07T15:07:41.747Z,41.84
2018-04-07T15:10:07.582Z,41.90
2018-04-07T15:12:33.399Z,42.28
2018-04-07T15:14:59.206Z,42.18
2018-04-07T15:17:25.044Z,41.97
2018-04-07T15:19:51.670Z,41.98
2018-04-07T15:22:17.512Z,41.74
2018-04-07T15:24:43.382Z,40.96
2018-04-07T15:27:09.186Z,41.47
2018-04-07T15:29:35.000Z,41.63
2018-04-07T15:32:00.854Z,41.62
2018-04-07T15:34:27.637Z,41.73
2018-04-07T15:36:54.299Z,41.74
2018-04-07T15:39:20.110Z,41.40
2018-04-07T15:41:45.921Z,41.57
2018-04-07T15:44:11.729Z,41.71
2018-04-07T15:46:37.539Z,41.78
2018-04-07T15:49:03.359Z,42.03
2018-04-07T15:51:29.284Z,41.97
2018-04-07T15:53:56.009Z,41.94
2018-04-07T15:56:21.814Z,42.10
2018-04-07T15:58:47.628Z,42.14
2018-04-07T16:01:13.530Z,42.29
2018-04-07T16:03:39.344Z,42.36
2018-04-07T16:06:05.161Z,42.49
2018-04-07T16:08:31.913Z,42.52
2018-04-07T16:10:57.738Z,42.62
2018-04-07T16:13:24.548Z,42.60
2018-04-07T16:15:50.346Z,42.65
2018-04-07T16:18:16.154Z,42.57
2018-04-07T16:20:41.958Z,42.72
2018-04-07T16:23:07.777Z,42.72
2018-04-07T16:25:33.762Z,42.73
2018-04-07T16:27:59.595Z,42.10
2018-04-07T16:30:25.414Z,42.47
2018-04-07T16:32:51.238Z,42.83
2018-04-07T16:35:17.196Z,42.78
2018-04-07T16:37:43.918Z,42.91
2018-04-07T16:40:09.736Z,42.78
2018-04-07T16:42:35.550Z,42.77
2018-04-07T16:45:02.066Z,42.99
2018-04-07T16:47:28.067Z,42.69
2018-04-07T16:49:53.875Z,42.90
2018-04-07T16:52:19.706Z,42.64
2018-04-07T16:54:45.535Z,42.74
2018-04-07T16:57:11.347Z,42.73
2018-04-07T16:59:37.156Z,42.79
2018-04-07T17:02:02.983Z,43.16
2018-04-07T17:04:28.826Z,43.30
2018-04-07T17:06:54.641Z,43.43
2018-04-07T17:09:20.492Z,43.48
2018-04-07T17:11:46.304Z,43.46
2018-04-07T17:14:12.107Z,43.81
2018-04-07T17:16:37.922Z,43.81
2018-04-07T17:19:03.729Z,44.09
2018-04-07T17:21:29.536Z,43.91
2018-04-07T17:23:55.611Z,44.13
2018-04-07T17:26:21.417Z,43.96
2018-04-07T17:28:47.223Z,43.72
2018-04-07T17:31:13.064Z,43.79
2018-04-07T17:33:38.869Z,43.81
2018-04-07T17:36:04.678Z,43.39
2018-04-07T17:38:30.494Z,43.30
2018-04-07T17:40:57.189Z,42.95
2018-04-07T17:43:23.959Z,42.75
2018-04-07T17:45:50.258Z,42.55
2018-04-07T17:48:16.065Z,42.39
2018-04-07T17:50:41.916Z,42.30
2018-04-07T17:53:07.766Z,42.37
2018-04-07T17:55:33.578Z,42.25
2018-04-07T17:58:00.234Z,42.24
2018-04-07T18:00:26.850Z,42.28
2018-04-07T18:02:52.658Z,42.35
2018-04-07T18:05:18.458Z,42.34
2018-04-07T18:07:44.312Z,42.42
2018-04-07T18:10:10.115Z,42.54
2018-04-07T18:12:35.917Z,42.66
2018-04-07T18:15:01.722Z,42.73
2018-04-07T18:17:27.554Z,42.96
2018-04-07T18:19:54.302Z,43.21
2018-04-07T18:22:20.109Z,43.34
2018-04-07T18:24:45.913Z,43.54
2018-04-07T18:27:11.759Z,43.40
2018-04-07T18:29:38.489Z,43.48
2018-04-07T18:32:05.132Z,43.51
2018-04-07T18:34:31.897Z,43.62
2018-04-07T18:36:57.717Z,43.71
2018-04-07T18:39:23.677Z,43.87
2018-04-07T18:41:49.494Z,43.96
2018-04-07T18:44:15.313Z,43.90
2018-04-07T18:46:41.161Z,43.86
2018-04-07T18:49:07.171Z,43.88
2018-04-07T18:51:33.031Z,43.98
2018-04-07T18:53:58.902Z,44.14
2018-04-07T18:56:24.719Z,44.11
2018-04-07T18:58:50.567Z,44.29
2018-04-07T19:01:16.401Z,44.47
2018-04-07T19:03:42.288Z,44.66
2018-04-07T19:06:08.140Z,44.46
2018-04-07T19:08:34.018Z,44.53
2018-04-07T19:10:59.882Z,44.45
2018-04-07T19:13:25.698Z,44.49
2018-04-07T19:15:51.678Z,44.67
2018-04-07T19:18:17.492Z,44.58
2018-04-07T19:20:43.551Z,44.44
2018-04-07T19:23:09.383Z,44.53
2018-04-07T19:25:35.207Z,44.56
2018-04-07T19:28:01.146Z,44.42
2018-04-07T19:30:26.982Z,44.51
2018-04-07T19:32:52.823Z,44.52
2018-04-07T19:35:18.651Z,44.58
2018-04-07T19:37:44.633Z,44.57
2018-04-07T19:40:10.491Z,44.39
2018-04-07T19:42:36.345Z,44.13
2018-04-07T19:45:02.386Z,43.80
2018-04-07T19:47:29.234Z,43.55
2018-04-07T19:49:55.083Z,43.46
2018-04-07T19:52:20.916Z,43.34
2018-04-07T19:54:46.979Z,43.23
2018-04-07T19:57:12.790Z,43.27
2018-04-07T19:59:38.628Z,43.32
2018-04-07T20:02:04.603Z,43.44
2018-04-07T20:04:30.450Z,43.47
2018-04-07T20:06:56.308Z,43.56
2018-04-07T20:09:22.129Z,43.60
2018-04-07T20:11:47.951Z,43.60
2018-04-07T20:14:14.777Z,43.61
2018-04-07T20:16:40.618Z,43.64
2018-04-07T20:19:06.482Z,43.63
2018-04-07T20:21:32.388Z,43.67
2018-04-07T20:23:58.250Z,43.50
2018-04-07T20:26:24.132Z,43.68
2018-04-07T20:28:49.959Z,43.33
2018-04-07T20:31:15.786Z,43.79
2018-04-07T20:33:42.493Z,43.53
2018-04-07T20:36:08.339Z,43.92
2018-04-07T20:38:34.147Z,43.83
2018-04-07T20:40:59.985Z,43.73
2018-04-07T20:43:25.858Z,43.56
2018-04-07T20:45:51.682Z,43.49
2018-04-07T20:48:17.514Z,43.86
2018-04-07T20:50:43.334Z,43.90
2018-04-07T20:53:09.287Z,43.90
2018-04-07T20:55:35.108Z,43.71
2018-04-07T20:58:00.918Z,43.67
2018-04-07T21:00:26.892Z,44.12
2018-04-07T21:02:52.689Z,43.84
2018-04-07T21:05:18.550Z,44.02
2018-04-07T21:07:44.390Z,44.11
2018-04-07T21:10:11.155Z,44.04
2018-04-07T21:12:36.971Z,44.22
2018-04-07T21:15:02.798Z,44.17
2018-04-07T21:17:28.614Z,44.11
2018-04-07T21:19:54.430Z,44.32
2018-04-07T21:22:20.262Z,44.18
2018-04-07T21:24:46.074Z,44.09
2018-04-07T21:27:11.893Z,44.05
2018-04-07T21:29:37.710Z,44.15
2018-04-07T21:32:03.570Z,44.40
2018-04-07T21:34:30.158Z,44.21
2018-04-07T21:36:56.048Z,44.59
2018-04-07T21:39:22.651Z,44.69
2018-04-07T21:41:48.549Z,44.92
2018-04-07T21:44:15.338Z,44.96
2018-04-07T21:46:42.117Z,45.20
2018-04-07T21:49:08.847Z,44.97
2018-04-07T21:51:35.662Z,45.02
2018-04-07T21:54:01.482Z,45.04
2018-04-07T21:56:28.251Z,45.17
2018-04-07T21:58:54.856Z,44.99
2018-04-07T22:01:20.689Z,45.06
2018-04-07T22:03:46.498Z,45.29
2018-04-07T22:06:12.315Z,45.34
2018-04-07T22:08:38.141Z,45.38
2018-04-07T22:11:03.971Z,45.16
2018-04-07T22:13:29.810Z,45.03
2018-04-07T22:15:55.624Z,45.02
2018-04-07T22:18:21.477Z,45.07
2018-04-07T22:20:47.298Z,45.13
2018-04-07T22:23:13.118Z,45.59
2018-04-07T22:25:38.945Z,45.63
2018-04-07T22:28:04.771Z,45.72
2018-04-07T22:30:30.687Z,45.56
2018-04-07T22:32:56.515Z,45.51
2018-04-07T22:35:22.351Z,45.49
2018-04-07T22:37:48.177Z,45.67
2018-04-07T22:40:13.986Z,45.74
2018-04-07T22:42:39.869Z,45.92
2018-04-07T22:45:05.691Z,45.81
2018-04-07T22:47:31.504Z,45.78
2018-04-07T22:49:57.324Z,46.14
2018-04-07T22:52:23.262Z,45.89
2018-04-07T22:54:49.087Z,45.17
2018-04-07T22:57:14.906Z,44.73
2018-04-07T22:59:40.724Z,44.73
2018-04-07T23:02:06.539Z,44.85
2018-04-07T23:04:32.358Z,44.79
2018-04-07T23:06:58.170Z,44.79
2018-04-07T23:09:23.974Z,45.43
2018-04-07T23:11:49.911Z,45.43
2018-04-07T23:14:16.694Z,45.04
2018-04-07T23:16:42.507Z,45.06
2018-04-07T23:19:08.371Z,45.62
2018-04-07T23:21:34.181Z,45.27
2018-04-07T23:24:00.002Z,45.63
2018-04-07T23:26:26.658Z,45.74
2018-04-07T23:28:52.643Z,45.70
2018-04-07T23:31:19.428Z,45.67
2018-04-07T23:33:45.269Z,45.78
2018-04-07T23:36:11.145Z,46.14
2018-04-07T23:38:37.951Z,45.87
2018-04-07T23:41:04.651Z,46.21
2018-04-07T23:43:30.464Z,46.03
2018-04-07T23:45:57.267Z,46.26
2018-04-07T23:48:23.923Z,46.33
2018-04-07T23:50:49.735Z,46.34
2018-04-07T23:53:15.552Z,46.28
2018-04-07T23:55:41.363Z,46.36
2018-04-07T23:58:07.167Z,46.33
